sensor_id;sensor_type;location;lat;lon;timestamp;P1;durP1;ratioP1;P2;durP2;ratioP2
36257;SDS011;22294;52.044;4.582;2022-12-29T00:01:51;3.08;;;1.70;;
36257;SDS011;22294;52.044;4.582;2022-12-29T00:04:17;2.28;;;1.60;;
36257;SDS011;22294;52.044;4.582;2022-12-29T00:06:43;3.67;;;1.75;;
36257;SDS011;22294;52.044;4.582;2022-12-29T00:09:10;2.22;;;1.45;;
36257;SDS011;22294;52.044;4.582;2022-12-29T00:11:38;2.65;;;1.45;;
36257;SDS011;22294;52.044;4.582;2022-12-29T00:14:03;4.20;;;1.60;;
36257;SDS011;22294;52.044;4.582;2022-12-29T00:16:47;3.22;;;1.17;;
36257;SDS011;22294;52.044;4.582;2022-12-29T00:19:13;3.17;;;1.70;;
36257;SDS011;22294;52.044;4.582;2022-12-29T00:22:11;1.45;;;1.20;;
36257;SDS011;22294;52.044;4.582;2022-12-29T00:24:56;2.70;;;1.38;;
36257;SDS011;22294;52.044;4.582;2022-12-29T00:27:41;2.42;;;1.10;;
36257;SDS011;22294;52.044;4.582;2022-12-29T00:30:25;2.70;;;1.48;;
36257;SDS011;22294;52.044;4.582;2022-12-29T00:33:15;2.25;;;1.10;;
36257;SDS011;22294;52.044;4.582;2022-12-29T00:38:35;1.98;;;1.20;;
36257;SDS011;22294;52.044;4.582;2022-12-29T00:41:20;2.15;;;1.00;;
36257;SDS011;22294;52.044;4.582;2022-12-29T00:44:04;2.97;;;1.45;;
36257;SDS011;22294;52.044;4.582;2022-12-29T00:46:30;1.92;;;1.30;;
36257;SDS011;22294;52.044;4.582;2022-12-29T00:48:57;2.97;;;1.00;;
36257;SDS011;22294;52.044;4.582;2022-12-29T00:51:40;3.25;;;1.10;;
36257;SDS011;22294;52.044;4.582;2022-12-29T00:54:06;2.67;;;1.23;;
36257;SDS011;22294;52.044;4.582;2022-12-29T00:56:31;1.42;;;1.20;;
36257;SDS011;22294;52.044;4.582;2022-12-29T00:59:04;2.75;;;1.40;;
36257;SDS011;22294;52.044;4.582;2022-12-29T01:01:30;2.25;;;1.17;;
36257;SDS011;22294;52.044;4.582;2022-12-29T01:03:57;4.88;;;1.25;;
36257;SDS011;22294;52.044;4.582;2022-12-29T01:06:22;1.83;;;1.00;;
36257;SDS011;22294;52.044;4.582;2022-12-29T01:08:47;1.88;;;1.17;;
36257;SDS011;22294;52.044;4.582;2022-12-29T01:11:32;2.75;;;1.10;;
36257;SDS011;22294;52.044;4.582;2022-12-29T01:13:58;1.92;;;0.70;;
36257;SDS011;22294;52.044;4.582;2022-12-29T01:16:23;2.92;;;1.30;;
36257;SDS011;22294;52.044;4.582;2022-12-29T01:18:48;2.85;;;1.30;;
36257;SDS011;22294;52.044;4.582;2022-12-29T01:21:13;4.13;;;1.45;;
36257;SDS011;22294;52.044;4.582;2022-12-29T01:23:39;5.25;;;1.55;;
36257;SDS011;22294;52.044;4.582;2022-12-29T01:26:08;3.42;;;1.40;;
36257;SDS011;22294;52.044;4.582;2022-12-29T01:28:37;2.25;;;1.95;;
36257;SDS011;22294;52.044;4.582;2022-12-29T01:31:05;2.00;;;1.33;;
36257;SDS011;22294;52.044;4.582;2022-12-29T01:33:34;2.42;;;1.60;;
36257;SDS011;22294;52.044;4.582;2022-12-29T01:36:00;4.00;;;1.65;;
36257;SDS011;22294;52.044;4.582;2022-12-29T01:38:29;4.15;;;1.58;;
36257;SDS011;22294;52.044;4.582;2022-12-29T01:40:54;4.45;;;1.95;;
36257;SDS011;22294;52.044;4.582;2022-12-29T01:43:20;2.10;;;1.42;;
36257;SDS011;22294;52.044;4.582;2022-12-29T01:45:47;3.35;;;1.50;;
36257;SDS011;22294;52.044;4.582;2022-12-29T01:48:15;5.65;;;1.77;;
36257;SDS011;22294;52.044;4.582;2022-12-29T01:50:44;2.20;;;1.40;;
36257;SDS011;22294;52.044;4.582;2022-12-29T01:53:16;2.13;;;1.60;;
36257;SDS011;22294;52.044;4.582;2022-12-29T01:55:48;2.92;;;1.17;;
36257;SDS011;22294;52.044;4.582;2022-12-29T01:58:18;3.35;;;1.20;;
36257;SDS011;22294;52.044;4.582;2022-12-29T02:00:47;4.53;;;1.17;;
36257;SDS011;22294;52.044;4.582;2022-12-29T02:03:12;4.80;;;1.25;;
36257;SDS011;22294;52.044;4.582;2022-12-29T02:05:43;4.28;;;1.13;;
36257;SDS011;22294;52.044;4.582;2022-12-29T02:08:13;3.97;;;0.95;;
36257;SDS011;22294;52.044;4.582;2022-12-29T02:10:39;5.97;;;1.00;;
36257;SDS011;22294;52.044;4.582;2022-12-29T02:13:05;5.38;;;1.80;;
36257;SDS011;22294;52.044;4.582;2022-12-29T02:48:23;9.48;;;1.70;;
36257;SDS011;22294;52.044;4.582;2022-12-29T02:51:05;5.53;;;0.88;;
36257;SDS011;22294;52.044;4.582;2022-12-29T02:53:37;5.15;;;1.08;;
36257;SDS011;22294;52.044;4.582;2022-12-29T02:56:23;10.35;;;1.98;;
36257;SDS011;22294;52.044;4.582;2022-12-29T02:58:48;5.07;;;1.73;;
36257;SDS011;22294;52.044;4.582;2022-12-29T03:04:17;12.35;;;1.80;;
36257;SDS011;22294;52.044;4.582;2022-12-29T03:07:11;11.75;;;1.80;;
36257;SDS011;22294;52.044;4.582;2022-12-29T03:12:46;12.50;;;1.60;;
36257;SDS011;22294;52.044;4.582;2022-12-29T03:16:02;10.75;;;1.80;;
36257;SDS011;22294;52.044;4.582;2022-12-29T03:20:58;10.33;;;1.67;;
36257;SDS011;22294;52.044;4.582;2022-12-29T03:23:32;11.93;;;2.13;;
36257;SDS011;22294;52.044;4.582;2022-12-29T03:26:00;11.82;;;1.75;;
36257;SDS011;22294;52.044;4.582;2022-12-29T03:28:32;7.93;;;1.48;;
36257;SDS011;22294;52.044;4.582;2022-12-29T03:31:03;8.82;;;1.25;;
36257;SDS011;22294;52.044;4.582;2022-12-29T03:33:31;6.05;;;1.48;;
36257;SDS011;22294;52.044;4.582;2022-12-29T03:35:59;8.95;;;1.40;;
36257;SDS011;22294;52.044;4.582;2022-12-29T03:41:31;8.57;;;1.35;;
36257;SDS011;22294;52.044;4.582;2022-12-29T03:43:58;6.55;;;1.58;;
36257;SDS011;22294;52.044;4.582;2022-12-29T03:46:24;6.47;;;1.38;;
36257;SDS011;22294;52.044;4.582;2022-12-29T03:48:49;6.43;;;1.08;;
36257;SDS011;22294;52.044;4.582;2022-12-29T03:51:14;7.43;;;1.35;;
36257;SDS011;22294;52.044;4.582;2022-12-29T03:53:39;12.15;;;1.35;;
36257;SDS011;22294;52.044;4.582;2022-12-29T03:56:05;9.48;;;1.77;;
36257;SDS011;22294;52.044;4.582;2022-12-29T03:58:30;6.18;;;1.35;;
36257;SDS011;22294;52.044;4.582;2022-12-29T04:00:56;8.57;;;1.25;;
36257;SDS011;22294;52.044;4.582;2022-12-29T04:03:22;7.72;;;2.20;;
36257;SDS011;22294;52.044;4.582;2022-12-29T04:05:47;6.93;;;1.67;;
36257;SDS011;22294;52.044;4.582;2022-12-29T04:08:12;6.28;;;1.20;;
36257;SDS011;22294;52.044;4.582;2022-12-29T04:10:38;8.27;;;1.50;;
36257;SDS011;22294;52.044;4.582;2022-12-29T04:13:03;13.23;;;1.60;;
36257;SDS011;22294;52.044;4.582;2022-12-29T04:15:28;10.07;;;1.90;;
36257;SDS011;22294;52.044;4.582;2022-12-29T04:17:53;12.90;;;2.20;;
36257;SDS011;22294;52.044;4.582;2022-12-29T04:20:19;14.07;;;2.20;;
36257;SDS011;22294;52.044;4.582;2022-12-29T04:23:03;16.70;;;2.03;;
36257;SDS011;22294;52.044;4.582;2022-12-29T04:25:30;20.15;;;2.83;;
36257;SDS011;22294;52.044;4.582;2022-12-29T04:27:56;13.63;;;2.13;;
36257;SDS011;22294;52.044;4.582;2022-12-29T04:30:21;14.32;;;1.95;;
36257;SDS011;22294;52.044;4.582;2022-12-29T04:32:46;10.18;;;1.60;;
36257;SDS011;22294;52.044;4.582;2022-12-29T04:35:12;13.63;;;2.33;;
36257;SDS011;22294;52.044;4.582;2022-12-29T04:37:37;12.80;;;2.40;;
36257;SDS011;22294;52.044;4.582;2022-12-29T04:40:02;11.32;;;1.52;;
36257;SDS011;22294;52.044;4.582;2022-12-29T04:42:28;10.38;;;1.80;;
36257;SDS011;22294;52.044;4.582;2022-12-29T04:44:53;7.22;;;1.50;;
36257;SDS011;22294;52.044;4.582;2022-12-29T04:47:18;10.63;;;1.52;;
36257;SDS011;22294;52.044;4.582;2022-12-29T04:49:44;9.57;;;1.40;;
36257;SDS011;22294;52.044;4.582;2022-12-29T04:52:09;8.93;;;1.60;;
36257;SDS011;22294;52.044;4.582;2022-12-29T04:54:35;13.27;;;1.60;;
36257;SDS011;22294;52.044;4.582;2022-12-29T04:57:00;11.77;;;1.67;;
36257;SDS011;22294;52.044;4.582;2022-12-29T04:59:25;12.55;;;1.67;;
36257;SDS011;22294;52.044;4.582;2022-12-29T05:01:51;15.02;;;2.03;;
36257;SDS011;22294;52.044;4.582;2022-12-29T05:04:16;12.93;;;2.20;;
36257;SDS011;22294;52.044;4.582;2022-12-29T05:06:41;10.98;;;2.03;;
36257;SDS011;22294;52.044;4.582;2022-12-29T05:09:07;10.32;;;1.85;;
36257;SDS011;22294;52.044;4.582;2022-12-29T05:11:32;14.50;;;1.90;;
36257;SDS011;22294;52.044;4.582;2022-12-29T05:13:57;15.48;;;2.15;;
36257;SDS011;22294;52.044;4.582;2022-12-29T05:16:23;18.90;;;2.65;;
36257;SDS011;22294;52.044;4.582;2022-12-29T05:18:48;13.45;;;2.40;;
36257;SDS011;22294;52.044;4.582;2022-12-29T05:21:13;17.25;;;3.00;;
36257;SDS011;22294;52.044;4.582;2022-12-29T05:23:38;12.60;;;2.47;;
36257;SDS011;22294;52.044;4.582;2022-12-29T05:26:04;16.17;;;1.98;;
36257;SDS011;22294;52.044;4.582;2022-12-29T05:28:29;12.20;;;2.08;;
36257;SDS011;22294;52.044;4.582;2022-12-29T05:30:54;12.70;;;2.00;;
36257;SDS011;22294;52.044;4.582;2022-12-29T05:33:20;20.35;;;2.72;;
36257;SDS011;22294;52.044;4.582;2022-12-29T05:35:45;15.50;;;2.13;;
36257;SDS011;22294;52.044;4.582;2022-12-29T05:38:11;13.60;;;2.20;;
36257;SDS011;22294;52.044;4.582;2022-12-29T05:40:36;12.52;;;2.30;;
36257;SDS011;22294;52.044;4.582;2022-12-29T05:43:01;18.23;;;2.63;;
36257;SDS011;22294;52.044;4.582;2022-12-29T05:45:27;16.00;;;2.20;;
36257;SDS011;22294;52.044;4.582;2022-12-29T05:47:52;14.63;;;2.28;;
36257;SDS011;22294;52.044;4.582;2022-12-29T05:50:17;18.88;;;2.95;;
36257;SDS011;22294;52.044;4.582;2022-12-29T05:52:43;20.65;;;3.03;;
36257;SDS011;22294;52.044;4.582;2022-12-29T05:55:08;15.90;;;2.38;;
36257;SDS011;22294;52.044;4.582;2022-12-29T05:57:34;16.67;;;2.72;;
36257;SDS011;22294;52.044;4.582;2022-12-29T05:59:59;13.30;;;2.42;;
36257;SDS011;22294;52.044;4.582;2022-12-29T06:02:25;16.23;;;2.88;;
36257;SDS011;22294;52.044;4.582;2022-12-29T06:04:50;15.95;;;2.75;;
36257;SDS011;22294;52.044;4.582;2022-12-29T06:07:15;21.75;;;3.22;;
36257;SDS011;22294;52.044;4.582;2022-12-29T06:09:40;20.95;;;3.15;;
36257;SDS011;22294;52.044;4.582;2022-12-29T06:12:06;17.17;;;2.75;;
36257;SDS011;22294;52.044;4.582;2022-12-29T06:14:31;12.60;;;2.00;;
36257;SDS011;22294;52.044;4.582;2022-12-29T06:16:56;18.30;;;2.92;;
36257;SDS011;22294;52.044;4.582;2022-12-29T06:19:22;13.95;;;2.22;;
36257;SDS011;22294;52.044;4.582;2022-12-29T06:21:47;16.48;;;2.38;;
36257;SDS011;22294;52.044;4.582;2022-12-29T06:24:12;13.75;;;3.13;;
36257;SDS011;22294;52.044;4.582;2022-12-29T06:26:38;14.40;;;2.60;;
36257;SDS011;22294;52.044;4.582;2022-12-29T06:29:05;16.52;;;2.65;;
36257;SDS011;22294;52.044;4.582;2022-12-29T06:31:31;21.88;;;2.40;;
36257;SDS011;22294;52.044;4.582;2022-12-29T06:33:57;21.02;;;3.03;;
36257;SDS011;22294;52.044;4.582;2022-12-29T06:36:22;17.75;;;3.13;;
36257;SDS011;22294;52.044;4.582;2022-12-29T06:38:47;24.90;;;3.50;;
36257;SDS011;22294;52.044;4.582;2022-12-29T06:41:13;16.17;;;3.05;;
36257;SDS011;22294;52.044;4.582;2022-12-29T06:43:38;19.65;;;2.60;;
36257;SDS011;22294;52.044;4.582;2022-12-29T06:46:04;17.40;;;3.55;;
36257;SDS011;22294;52.044;4.582;2022-12-29T06:48:30;19.58;;;3.00;;
36257;SDS011;22294;52.044;4.582;2022-12-29T06:50:55;16.83;;;3.38;;
36257;SDS011;22294;52.044;4.582;2022-12-29T06:53:20;18.60;;;2.72;;
36257;SDS011;22294;52.044;4.582;2022-12-29T06:55:45;15.05;;;2.80;;
36257;SDS011;22294;52.044;4.582;2022-12-29T06:58:11;17.33;;;2.38;;
36257;SDS011;22294;52.044;4.582;2022-12-29T07:00:36;13.55;;;2.13;;
36257;SDS011;22294;52.044;4.582;2022-12-29T07:03:01;12.48;;;2.53;;
36257;SDS011;22294;52.044;4.582;2022-12-29T07:05:27;13.25;;;2.28;;
36257;SDS011;22294;52.044;4.582;2022-12-29T07:07:52;13.38;;;2.58;;
36257;SDS011;22294;52.044;4.582;2022-12-29T07:10:19;17.30;;;2.35;;
36257;SDS011;22294;52.044;4.582;2022-12-29T07:12:46;12.68;;;1.75;;
36257;SDS011;22294;52.044;4.582;2022-12-29T07:15:12;11.35;;;1.95;;
36257;SDS011;22294;52.044;4.582;2022-12-29T07:17:37;19.85;;;2.40;;
36257;SDS011;22294;52.044;4.582;2022-12-29T07:20:03;10.93;;;2.00;;
36257;SDS011;22294;52.044;4.582;2022-12-29T07:22:28;16.63;;;2.47;;
36257;SDS011;22294;52.044;4.582;2022-12-29T07:24:55;10.82;;;1.95;;
36257;SDS011;22294;52.044;4.582;2022-12-29T07:27:21;14.02;;;1.92;;
36257;SDS011;22294;52.044;4.582;2022-12-29T07:29:46;12.52;;;2.13;;
36257;SDS011;22294;52.044;4.582;2022-12-29T07:32:11;13.75;;;2.55;;
36257;SDS011;22294;52.044;4.582;2022-12-29T07:34:37;13.13;;;2.40;;
36257;SDS011;22294;52.044;4.582;2022-12-29T07:37:04;16.08;;;2.55;;
36257;SDS011;22294;52.044;4.582;2022-12-29T07:39:29;21.65;;;2.88;;
36257;SDS011;22294;52.044;4.582;2022-12-29T07:41:55;21.30;;;2.78;;
36257;SDS011;22294;52.044;4.582;2022-12-29T07:44:20;18.20;;;2.72;;
36257;SDS011;22294;52.044;4.582;2022-12-29T07:46:45;20.95;;;2.63;;
36257;SDS011;22294;52.044;4.582;2022-12-29T07:49:10;15.50;;;2.58;;
36257;SDS011;22294;52.044;4.582;2022-12-29T07:51:36;13.80;;;2.28;;
36257;SDS011;22294;52.044;4.582;2022-12-29T07:54:01;16.67;;;1.98;;
36257;SDS011;22294;52.044;4.582;2022-12-29T07:56:26;21.25;;;3.70;;
36257;SDS011;22294;52.044;4.582;2022-12-29T07:58:52;18.58;;;2.25;;
36257;SDS011;22294;52.044;4.582;2022-12-29T08:01:17;14.45;;;2.97;;
36257;SDS011;22294;52.044;4.582;2022-12-29T08:03:43;15.10;;;2.95;;
36257;SDS011;22294;52.044;4.582;2022-12-29T08:06:09;20.88;;;3.22;;
36257;SDS011;22294;52.044;4.582;2022-12-29T08:08:35;19.00;;;3.10;;
36257;SDS011;22294;52.044;4.582;2022-12-29T08:11:00;17.35;;;2.47;;
36257;SDS011;22294;52.044;4.582;2022-12-29T08:13:26;16.13;;;2.35;;
36257;SDS011;22294;52.044;4.582;2022-12-29T08:15:51;18.13;;;2.65;;
36257;SDS011;22294;52.044;4.582;2022-12-29T08:18:16;15.63;;;2.75;;
36257;SDS011;22294;52.044;4.582;2022-12-29T08:20:41;23.02;;;4.05;;
36257;SDS011;22294;52.044;4.582;2022-12-29T08:23:07;23.63;;;3.00;;
36257;SDS011;22294;52.044;4.582;2022-12-29T08:25:32;15.10;;;2.50;;
36257;SDS011;22294;52.044;4.582;2022-12-29T08:27:57;18.25;;;2.67;;
36257;SDS011;22294;52.044;4.582;2022-12-29T08:30:24;18.88;;;2.65;;
36257;SDS011;22294;52.044;4.582;2022-12-29T08:32:49;17.73;;;2.92;;
36257;SDS011;22294;52.044;4.582;2022-12-29T08:35:15;14.25;;;3.50;;
36257;SDS011;22294;52.044;4.582;2022-12-29T08:37:41;19.60;;;2.95;;
36257;SDS011;22294;52.044;4.582;2022-12-29T08:40:07;20.55;;;3.80;;
36257;SDS011;22294;52.044;4.582;2022-12-29T08:42:33;18.42;;;3.35;;
36257;SDS011;22294;52.044;4.582;2022-12-29T08:44:59;17.15;;;2.70;;
36257;SDS011;22294;52.044;4.582;2022-12-29T08:47:24;14.93;;;2.38;;
36257;SDS011;22294;52.044;4.582;2022-12-29T08:49:50;24.70;;;2.65;;
36257;SDS011;22294;52.044;4.582;2022-12-29T08:52:15;18.77;;;3.08;;
36257;SDS011;22294;52.044;4.582;2022-12-29T08:54:41;18.27;;;2.53;;
36257;SDS011;22294;52.044;4.582;2022-12-29T08:57:06;16.77;;;2.88;;
36257;SDS011;22294;52.044;4.582;2022-12-29T08:59:31;19.67;;;2.60;;
36257;SDS011;22294;52.044;4.582;2022-12-29T09:01:56;14.10;;;2.78;;
36257;SDS011;22294;52.044;4.582;2022-12-29T09:04:22;15.25;;;2.50;;
36257;SDS011;22294;52.044;4.582;2022-12-29T09:06:48;15.50;;;2.85;;
36257;SDS011;22294;52.044;4.582;2022-12-29T09:09:14;18.92;;;2.67;;
36257;SDS011;22294;52.044;4.582;2022-12-29T09:11:39;13.43;;;3.05;;
36257;SDS011;22294;52.044;4.582;2022-12-29T09:14:04;16.20;;;3.40;;
36257;SDS011;22294;52.044;4.582;2022-12-29T09:16:30;19.25;;;3.70;;
36257;SDS011;22294;52.044;4.582;2022-12-29T09:18:55;18.85;;;2.85;;
36257;SDS011;22294;52.044;4.582;2022-12-29T09:21:20;17.73;;;2.78;;
36257;SDS011;22294;52.044;4.582;2022-12-29T09:23:46;21.98;;;4.00;;
36257;SDS011;22294;52.044;4.582;2022-12-29T09:26:12;16.55;;;3.05;;
36257;SDS011;22294;52.044;4.582;2022-12-29T09:28:38;14.57;;;3.10;;
36257;SDS011;22294;52.044;4.582;2022-12-29T09:31:03;12.73;;;2.90;;
36257;SDS011;22294;52.044;4.582;2022-12-29T09:33:29;19.08;;;3.42;;
36257;SDS011;22294;52.044;4.582;2022-12-29T09:35:57;18.20;;;2.70;;
36257;SDS011;22294;52.044;4.582;2022-12-29T09:38:23;22.80;;;2.92;;
36257;SDS011;22294;52.044;4.582;2022-12-29T09:40:51;13.98;;;2.83;;
36257;SDS011;22294;52.044;4.582;2022-12-29T09:43:32;15.27;;;2.97;;
36257;SDS011;22294;52.044;4.582;2022-12-29T09:46:22;19.88;;;2.90;;
36257;SDS011;22294;52.044;4.582;2022-12-29T09:48:53;12.38;;;3.20;;
36257;SDS011;22294;52.044;4.582;2022-12-29T09:51:39;21.73;;;3.28;;
36257;SDS011;22294;52.044;4.582;2022-12-29T09:57:01;25.30;;;3.20;;
36257;SDS011;22294;52.044;4.582;2022-12-29T09:59:40;19.70;;;3.35;;
36257;SDS011;22294;52.044;4.582;2022-12-29T10:02:14;17.75;;;3.20;;
36257;SDS011;22294;52.044;4.582;2022-12-29T10:04:57;25.75;;;4.28;;
36257;SDS011;22294;52.044;4.582;2022-12-29T10:07:26;25.30;;;3.83;;
36257;SDS011;22294;52.044;4.582;2022-12-29T10:12:32;31.35;;;4.22;;
36257;SDS011;22294;52.044;4.582;2022-12-29T10:18:18;26.35;;;4.50;;
36257;SDS011;22294;52.044;4.582;2022-12-29T10:25:44;29.00;;;4.90;;
36257;SDS011;22294;52.044;4.582;2022-12-29T10:28:15;23.42;;;5.13;;
36257;SDS011;22294;52.044;4.582;2022-12-29T10:30:46;22.63;;;4.35;;
36257;SDS011;22294;52.044;4.582;2022-12-29T10:33:15;29.25;;;4.63;;
36257;SDS011;22294;52.044;4.582;2022-12-29T10:35:46;24.23;;;4.75;;
36257;SDS011;22294;52.044;4.582;2022-12-29T10:38:15;30.92;;;4.13;;
36257;SDS011;22294;52.044;4.582;2022-12-29T10:40:56;31.73;;;4.50;;
36257;SDS011;22294;52.044;4.582;2022-12-29T10:43:29;26.00;;;4.90;;
36257;SDS011;22294;52.044;4.582;2022-12-29T10:46:02;26.70;;;4.47;;
36257;SDS011;22294;52.044;4.582;2022-12-29T10:48:32;27.23;;;4.07;;
36257;SDS011;22294;52.044;4.582;2022-12-29T10:50:59;24.90;;;3.55;;
36257;SDS011;22294;52.044;4.582;2022-12-29T10:53:43;27.00;;;4.38;;
36257;SDS011;22294;52.044;4.582;2022-12-29T10:58:58;24.55;;;4.32;;
36257;SDS011;22294;52.044;4.582;2022-12-29T11:01:31;20.33;;;4.32;;
36257;SDS011;22294;52.044;4.582;2022-12-29T11:04:03;32.30;;;3.83;;
36257;SDS011;22294;52.044;4.582;2022-12-29T11:06:35;29.00;;;5.25;;
36257;SDS011;22294;52.044;4.582;2022-12-29T11:09:09;32.85;;;4.53;;
36257;SDS011;22294;52.044;4.582;2022-12-29T11:11:39;26.17;;;4.53;;
36257;SDS011;22294;52.044;4.582;2022-12-29T11:14:18;28.77;;;4.70;;
36257;SDS011;22294;52.044;4.582;2022-12-29T11:16:58;28.90;;;4.47;;
36257;SDS011;22294;52.044;4.582;2022-12-29T11:19:27;25.05;;;4.00;;
36257;SDS011;22294;52.044;4.582;2022-12-29T11:24:54;21.90;;;4.05;;
36257;SDS011;22294;52.044;4.582;2022-12-29T11:27:29;21.70;;;3.22;;
36257;SDS011;22294;52.044;4.582;2022-12-29T11:30:11;22.48;;;3.92;;
36257;SDS011;22294;52.044;4.582;2022-12-29T11:32:55;29.73;;;4.47;;
36257;SDS011;22294;52.044;4.582;2022-12-29T11:35:31;23.88;;;3.97;;
36257;SDS011;22294;52.044;4.582;2022-12-29T11:41:13;23.67;;;3.25;;
36257;SDS011;22294;52.044;4.582;2022-12-29T11:43:55;19.70;;;4.00;;
36257;SDS011;22294;52.044;4.582;2022-12-29T11:48:54;19.23;;;2.40;;
36257;SDS011;22294;52.044;4.582;2022-12-29T11:51:24;19.23;;;3.65;;
36257;SDS011;22294;52.044;4.582;2022-12-29T11:54:13;17.30;;;2.40;;
36257;SDS011;22294;52.044;4.582;2022-12-29T11:56:44;9.45;;;1.98;;
36257;SDS011;22294;52.044;4.582;2022-12-29T12:01:59;16.02;;;3.47;;
36257;SDS011;22294;52.044;4.582;2022-12-29T12:04:28;13.27;;;2.80;;
36257;SDS011;22294;52.044;4.582;2022-12-29T12:07:12;15.93;;;2.38;;
36257;SDS011;22294;52.044;4.582;2022-12-29T12:09:57;12.80;;;2.80;;
36257;SDS011;22294;52.044;4.582;2022-12-29T12:12:30;20.38;;;2.95;;
36257;SDS011;22294;52.044;4.582;2022-12-29T12:15:20;23.15;;;3.63;;
36257;SDS011;22294;52.044;4.582;2022-12-29T12:21:09;26.02;;;3.92;;
36257;SDS011;22294;52.044;4.582;2022-12-29T12:23:53;20.33;;;3.72;;
36257;SDS011;22294;52.044;4.582;2022-12-29T12:29:08;23.83;;;3.58;;
36257;SDS011;22294;52.044;4.582;2022-12-29T12:34:27;18.42;;;2.78;;
36257;SDS011;22294;52.044;4.582;2022-12-29T12:40:03;19.27;;;3.50;;
36257;SDS011;22294;52.044;4.582;2022-12-29T12:42:37;21.63;;;2.53;;
36257;SDS011;22294;52.044;4.582;2022-12-29T12:47:58;13.52;;;2.40;;
36257;SDS011;22294;52.044;4.582;2022-12-29T13:01:48;21.55;;;2.85;;
36257;SDS011;22294;52.044;4.582;2022-12-29T13:07:28;15.57;;;2.83;;
36257;SDS011;22294;52.044;4.582;2022-12-29T13:10:21;17.73;;;3.40;;
36257;SDS011;22294;52.044;4.582;2022-12-29T13:12:55;19.92;;;3.38;;
36257;SDS011;22294;52.044;4.582;2022-12-29T13:18:26;24.60;;;3.55;;
36257;SDS011;22294;52.044;4.582;2022-12-29T13:21:09;21.08;;;3.00;;
36257;SDS011;22294;52.044;4.582;2022-12-29T13:26:13;21.88;;;3.17;;
36257;SDS011;22294;52.044;4.582;2022-12-29T13:28:55;24.27;;;3.95;;
36257;SDS011;22294;52.044;4.582;2022-12-29T13:31:38;19.67;;;3.58;;
36257;SDS011;22294;52.044;4.582;2022-12-29T13:34:59;15.63;;;3.08;;
36257;SDS011;22294;52.044;4.582;2022-12-29T13:37:22;18.73;;;2.70;;
36257;SDS011;22294;52.044;4.582;2022-12-29T13:39:54;12.10;;;2.47;;
36257;SDS011;22294;52.044;4.582;2022-12-29T13:42:24;13.60;;;2.50;;
36257;SDS011;22294;52.044;4.582;2022-12-29T13:44:54;17.60;;;3.78;;
36257;SDS011;22294;52.044;4.582;2022-12-29T13:49:58;14.93;;;3.17;;
36257;SDS011;22294;52.044;4.582;2022-12-29T13:52:43;13.60;;;2.30;;
36257;SDS011;22294;52.044;4.582;2022-12-29T13:55:23;12.50;;;2.80;;
36257;SDS011;22294;52.044;4.582;2022-12-29T14:00:49;14.38;;;2.60;;
36257;SDS011;22294;52.044;4.582;2022-12-29T14:06:03;11.43;;;2.20;;
36257;SDS011;22294;52.044;4.582;2022-12-29T14:08:44;9.10;;;2.53;;
36257;SDS011;22294;52.044;4.582;2022-12-29T14:11:11;12.60;;;2.40;;
36257;SDS011;22294;52.044;4.582;2022-12-29T14:13:40;12.07;;;2.20;;
36257;SDS011;22294;52.044;4.582;2022-12-29T14:16:10;8.15;;;2.33;;
36257;SDS011;22294;52.044;4.582;2022-12-29T14:18:50;12.45;;;2.13;;
36257;SDS011;22294;52.044;4.582;2022-12-29T14:23:42;11.97;;;2.47;;
36257;SDS011;22294;52.044;4.582;2022-12-29T14:28:54;9.90;;;2.15;;
36257;SDS011;22294;52.044;4.582;2022-12-29T14:39:30;14.65;;;2.40;;
36257;SDS011;22294;52.044;4.582;2022-12-29T14:42:03;12.65;;;3.13;;
36257;SDS011;22294;52.044;4.582;2022-12-29T14:44:32;17.27;;;2.72;;
36257;SDS011;22294;52.044;4.582;2022-12-29T14:46:59;18.10;;;2.50;;
36257;SDS011;22294;52.044;4.582;2022-12-29T14:49:31;16.58;;;2.63;;
36257;SDS011;22294;52.044;4.582;2022-12-29T14:52:24;13.18;;;2.65;;
36257;SDS011;22294;52.044;4.582;2022-12-29T14:55:28;14.50;;;2.60;;
36257;SDS011;22294;52.044;4.582;2022-12-29T14:57:41;18.42;;;2.47;;
36257;SDS011;22294;52.044;4.582;2022-12-29T15:00:21;13.93;;;2.47;;
36257;SDS011;22294;52.044;4.582;2022-12-29T15:02:49;10.65;;;2.22;;
36257;SDS011;22294;52.044;4.582;2022-12-29T15:08:11;12.98;;;2.70;;
36257;SDS011;22294;52.044;4.582;2022-12-29T15:13:40;12.18;;;2.25;;
36257;SDS011;22294;52.044;4.582;2022-12-29T15:18:56;14.05;;;2.38;;
36257;SDS011;22294;52.044;4.582;2022-12-29T15:21:26;15.25;;;2.40;;
36257;SDS011;22294;52.044;4.582;2022-12-29T15:23:56;13.23;;;2.55;;
36257;SDS011;22294;52.044;4.582;2022-12-29T15:26:21;17.85;;;2.55;;
36257;SDS011;22294;52.044;4.582;2022-12-29T15:28:48;15.05;;;2.30;;
36257;SDS011;22294;52.044;4.582;2022-12-29T15:31:19;17.17;;;3.45;;
36257;SDS011;22294;52.044;4.582;2022-12-29T15:33:47;10.88;;;2.88;;
36257;SDS011;22294;52.044;4.582;2022-12-29T15:36:21;16.90;;;2.80;;
36257;SDS011;22294;52.044;4.582;2022-12-29T15:38:49;18.45;;;2.88;;
36257;SDS011;22294;52.044;4.582;2022-12-29T15:44:20;20.55;;;3.50;;
36257;SDS011;22294;52.044;4.582;2022-12-29T15:46:49;15.00;;;2.70;;
36257;SDS011;22294;52.044;4.582;2022-12-29T15:49:14;15.00;;;2.90;;
36257;SDS011;22294;52.044;4.582;2022-12-29T15:51:40;15.65;;;2.95;;
36257;SDS011;22294;52.044;4.582;2022-12-29T15:54:14;11.50;;;2.63;;
36257;SDS011;22294;52.044;4.582;2022-12-29T15:56:42;18.33;;;3.13;;
36257;SDS011;22294;52.044;4.582;2022-12-29T15:59:22;16.27;;;2.13;;
36257;SDS011;22294;52.044;4.582;2022-12-29T16:01:49;12.40;;;2.58;;
36257;SDS011;22294;52.044;4.582;2022-12-29T16:04:15;12.40;;;2.28;;
36257;SDS011;22294;52.044;4.582;2022-12-29T16:06:45;13.30;;;2.35;;
36257;SDS011;22294;52.044;4.582;2022-12-29T16:09:41;12.32;;;2.45;;
36257;SDS011;22294;52.044;4.582;2022-12-29T16:12:13;14.75;;;2.70;;
36257;SDS011;22294;52.044;4.582;2022-12-29T16:14:45;11.23;;;2.35;;
36257;SDS011;22294;52.044;4.582;2022-12-29T16:17:15;14.90;;;2.97;;
36257;SDS011;22294;52.044;4.582;2022-12-29T16:20:04;17.25;;;2.38;;
36257;SDS011;22294;52.044;4.582;2022-12-29T16:22:45;15.45;;;2.45;;
36257;SDS011;22294;52.044;4.582;2022-12-29T16:25:23;15.38;;;2.22;;
36257;SDS011;22294;52.044;4.582;2022-12-29T16:27:53;14.32;;;3.00;;
36257;SDS011;22294;52.044;4.582;2022-12-29T16:32:55;13.73;;;2.53;;
36257;SDS011;22294;52.044;4.582;2022-12-29T16:35:26;15.85;;;3.10;;
36257;SDS011;22294;52.044;4.582;2022-12-29T16:40:50;16.17;;;2.83;;
36257;SDS011;22294;52.044;4.582;2022-12-29T16:43:34;11.95;;;3.00;;
36257;SDS011;22294;52.044;4.582;2022-12-29T16:46:17;16.70;;;2.97;;
36257;SDS011;22294;52.044;4.582;2022-12-29T16:48:55;10.52;;;2.63;;
36257;SDS011;22294;52.044;4.582;2022-12-29T16:51:28;14.25;;;2.97;;
36257;SDS011;22294;52.044;4.582;2022-12-29T16:53:56;16.90;;;3.20;;
36257;SDS011;22294;52.044;4.582;2022-12-29T16:56:24;14.35;;;3.40;;
36257;SDS011;22294;52.044;4.582;2022-12-29T16:59:02;15.38;;;3.38;;
36257;SDS011;22294;52.044;4.582;2022-12-29T17:01:30;10.73;;;2.50;;
36257;SDS011;22294;52.044;4.582;2022-12-29T17:04:00;11.05;;;2.60;;
36257;SDS011;22294;52.044;4.582;2022-12-29T17:06:31;20.67;;;4.60;;
36257;SDS011;22294;52.044;4.582;2022-12-29T17:08:57;17.98;;;3.65;;
36257;SDS011;22294;52.044;4.582;2022-12-29T17:11:27;11.20;;;3.10;;
36257;SDS011;22294;52.044;4.582;2022-12-29T17:14:26;12.30;;;3.28;;
36257;SDS011;22294;52.044;4.582;2022-12-29T17:19:51;15.82;;;2.90;;
36257;SDS011;22294;52.044;4.582;2022-12-29T17:22:25;14.18;;;3.00;;
36257;SDS011;22294;52.044;4.582;2022-12-29T17:24:53;14.23;;;3.35;;
36257;SDS011;22294;52.044;4.582;2022-12-29T17:27:30;14.15;;;2.80;;